createdAt,value
2018-07-31T00:00:57.836Z,101346.37
2018-07-31T00:03:27.954Z,101350.02
2018-07-31T00:05:57.703Z,101344.41
2018-07-31T00:08:26.538Z,101349.39
2018-07-31T00:10:55.403Z,101353.07
2018-07-31T00:13:24.748Z,101348.73
2018-07-31T00:15:54.718Z,101344.88
2018-07-31T00:18:23.809Z,101343.17
2018-07-31T00:20:53.919Z,101332.84
2018-07-31T00:23:22.693Z,101334.27
2018-07-31T00:25:51.416Z,101331.72
2018-07-31T00:28:20.188Z,101336.98
2018-07-31T00:30:49.178Z,101334.08
2018-07-31T00:33:18.390Z,101321.39
2018-07-31T00:35:47.943Z,101312.76
2018-07-31T00:38:18.728Z,101307.50
2018-07-31T00:40:47.454Z,101304.48
2018-07-31T00:43:16.194Z,101301.58
2018-07-31T00:45:45.066Z,101306.02
2018-07-31T00:48:14.360Z,101317.86
2018-07-31T00:50:45.365Z,101321.81
2018-07-31T00:53:14.796Z,101325.64
2018-07-31T00:55:46.674Z,101302.08
2018-07-31T00:58:15.358Z,101320.84
2018-07-31T01:00:43.983Z,101322.16
2018-07-31T01:03:12.830Z,101316.05
2018-07-31T01:05:42.496Z,101305.17
2018-07-31T01:08:11.919Z,101306.95
2018-07-31T01:10:41.183Z,101311.48
2018-07-31T01:13:10.265Z,101309.78
2018-07-31T01:15:39.275Z,101302.93
2018-07-31T01:18:08.198Z,101303.52
2018-07-31T01:20:37.158Z,101306.69
2018-07-31T01:23:12.226Z,101304.28
2018-07-31T01:25:41.310Z,101303.52
2018-07-31T01:28:10.373Z,101326.83
2018-07-31T01:30:39.245Z,101324.28
2018-07-31T01:33:08.049Z,101327.87
2018-07-31T01:35:36.855Z,101331.31
2018-07-31T01:38:05.934Z,101337.89
2018-07-31T01:40:35.082Z,101336.30
2018-07-31T01:43:04.317Z,101346.36
2018-07-31T01:45:33.488Z,101342.88
2018-07-31T01:48:02.201Z,101351.54
2018-07-31T01:50:30.910Z,101351.62
2018-07-31T01:52:59.739Z,101349.45
2018-07-31T01:55:28.725Z,101359.89
2018-07-31T01:57:57.763Z,101346.74
2018-07-31T02:00:26.912Z,101351.54
2018-07-31T02:02:56.000Z,101345.89
2018-07-31T02:05:24.899Z,101341.48
2018-07-31T02:07:53.730Z,101351.54
2018-07-31T02:10:22.529Z,101353.67
2018-07-31T02:12:51.676Z,101346.63
2018-07-31T02:15:22.534Z,101352.74
2018-07-31T02:17:51.860Z,101358.00
2018-07-31T02:20:21.158Z,101353.59
2018-07-31T02:22:49.980Z,101355.84
2018-07-31T02:25:18.836Z,101354.52
2018-07-31T02:27:47.875Z,101352.94
2018-07-31T02:30:23.531Z,101353.89
2018-07-31T02:32:52.943Z,101359.34
2018-07-31T02:35:21.977Z,101358.84
2018-07-31T02:37:50.955Z,101372.11
2018-07-31T02:40:19.644Z,101356.90
2018-07-31T02:42:48.481Z,101353.53
2018-07-31T02:45:17.387Z,101352.30
2018-07-31T02:47:46.500Z,101348.54
2018-07-31T02:50:15.677Z,101347.41
2018-07-31T02:52:44.911Z,101359.35
2018-07-31T02:55:15.054Z,101363.77
2018-07-31T02:57:43.798Z,101365.54
2018-07-31T03:00:12.678Z,101365.19
2018-07-31T03:02:41.546Z,101363.48
2018-07-31T03:05:12.107Z,101361.24
2018-07-31T03:07:41.262Z,101358.61
2018-07-31T03:10:11.267Z,101369.13
2018-07-31T03:12:40.214Z,101366.50
2018-07-31T03:15:10.555Z,101363.48
2018-07-31T03:17:39.295Z,101364.41
2018-07-31T03:20:08.734Z,101364.05
2018-07-31T03:22:37.951Z,101363.39
2018-07-31T03:25:07.087Z,101363.50
2018-07-31T03:27:36.139Z,101371.57
2018-07-31T03:30:05.461Z,101376.05
2018-07-31T03:32:34.309Z,101371.01
2018-07-31T03:35:03.054Z,101373.83
2018-07-31T03:37:32.202Z,101372.23
2018-07-31T03:40:01.309Z,101370.63
2018-07-31T03:42:30.416Z,101368.55
2018-07-31T03:44:59.420Z,101373.98
2018-07-31T03:47:28.137Z,101370.44
2018-07-31T03:49:56.912Z,101374.84
2018-07-31T03:52:25.844Z,101379.42
2018-07-31T03:54:54.883Z,101383.55
2018-07-31T03:57:23.950Z,101384.22
2018-07-31T03:59:52.902Z,101380.50
2018-07-31T04:02:21.915Z,101395.12
2018-07-31T04:04:50.666Z,101393.06
2018-07-31T04:07:19.413Z,101395.80
2018-07-31T04:09:48.147Z,101394.66
2018-07-31T04:12:17.033Z,101398.31
2018-07-31T04:14:45.986Z,101390.61
2018-07-31T04:17:15.233Z,101400.34
2018-07-31T04:40:55.378Z,101432.24
2018-07-31T04:43:24.201Z,101433.48
2018-07-31T04:45:52.819Z,101433.09
2018-07-31T04:59:31.501Z,101444.95
2018-07-31T05:02:00.163Z,101453.59
2018-07-31T05:13:00.509Z,101462.79
2018-07-31T05:15:29.155Z,101463.74
2018-07-31T05:17:57.862Z,101456.39
2018-07-31T05:20:26.669Z,101464.95
2018-07-31T05:30:59.310Z,101468.44
2018-07-31T05:33:27.960Z,101480.03
2018-07-31T05:35:56.731Z,101485.28
2018-07-31T05:48:48.497Z,101494.59
2018-07-31T05:51:17.254Z,101492.25
2018-07-31T05:53:46.160Z,101493.89
2018-07-31T06:04:15.734Z,101491.33
2018-07-31T06:06:44.396Z,101496.91
2018-07-31T06:09:13.017Z,101495.60
2018-07-31T06:11:41.721Z,101488.39
2018-07-31T06:21:00.977Z,101511.63
2018-07-31T06:23:29.786Z,101512.66
2018-07-31T06:25:58.519Z,101516.71
2018-07-31T06:28:27.459Z,101512.52
2018-07-31T06:30:56.866Z,101519.19
2018-07-31T06:33:26.007Z,101524.91
2018-07-31T06:35:55.204Z,101533.65
2018-07-31T06:38:23.974Z,101530.19
2018-07-31T06:40:52.781Z,101539.88
2018-07-31T06:43:21.611Z,101536.00
2018-07-31T06:45:50.566Z,101541.00
2018-07-31T07:03:43.215Z,101553.59
2018-07-31T07:06:14.280Z,101563.55
2018-07-31T07:08:43.555Z,101559.14
2018-07-31T07:11:12.768Z,101567.39
2018-07-31T07:13:41.630Z,101571.63
2018-07-31T07:16:10.513Z,101569.77
2018-07-31T07:18:39.550Z,101577.09
2018-07-31T07:21:10.970Z,101574.28
2018-07-31T07:23:41.400Z,101571.50
2018-07-31T07:26:11.139Z,101567.91
2018-07-31T07:28:43.491Z,101576.58
2018-07-31T07:31:12.330Z,101577.21
2018-07-31T07:33:41.074Z,101577.88
2018-07-31T07:36:09.934Z,101581.18
2018-07-31T07:38:39.770Z,101578.64
2018-07-31T07:41:15.500Z,101582.67
2018-07-31T07:43:51.172Z,101592.73
2018-07-31T07:46:20.980Z,101584.45
2018-07-31T07:48:49.679Z,101590.92
2018-07-31T07:51:18.538Z,101592.63
2018-07-31T07:53:47.424Z,101599.29
2018-07-31T07:56:19.644Z,101601.92
2018-07-31T07:58:52.531Z,101595.27
2018-07-31T08:01:26.849Z,101601.16
2018-07-31T08:03:57.919Z,101597.88
2018-07-31T08:06:26.818Z,101607.18
2018-07-31T08:08:55.637Z,101602.19
2018-07-31T08:26:45.679Z,101626.30
2018-07-31T08:38:34.825Z,101637.14
2018-07-31T08:41:11.761Z,101647.18
2018-07-31T08:43:46.105Z,101639.80
2018-07-31T08:58:39.239Z,101659.55
2018-07-31T09:14:09.198Z,101668.08
2018-07-31T09:16:38.579Z,101661.39
2018-07-31T09:19:07.722Z,101660.98
2018-07-31T09:30:51.567Z,101668.63
2018-07-31T09:33:21.243Z,101672.12
2018-07-31T09:35:50.951Z,101672.85
2018-07-31T09:47:30.749Z,101674.53
2018-07-31T09:49:59.870Z,101671.34
2018-07-31T09:52:29.082Z,101667.84
2018-07-31T10:04:05.908Z,101679.28
2018-07-31T10:06:35.027Z,101683.17
2018-07-31T10:09:05.444Z,101675.54
2018-07-31T10:21:00.807Z,101686.17
2018-07-31T10:23:30.329Z,101684.27
2018-07-31T10:25:59.534Z,101693.08
2018-07-31T10:38:06.031Z,101697.25
2018-07-31T10:40:35.259Z,101698.37
2018-07-31T10:43:04.193Z,101705.15
2018-07-31T10:57:46.959Z,101706.25
2018-07-31T11:00:16.356Z,101703.95
2018-07-31T11:15:05.573Z,101711.01
2018-07-31T11:17:35.651Z,101713.21
2018-07-31T11:32:15.818Z,101724.66
2018-07-31T11:34:44.895Z,101721.33
2018-07-31T11:49:22.879Z,101732.98
2018-07-31T11:51:52.425Z,101731.29
2018-07-31T12:06:32.313Z,101744.76
2018-07-31T12:09:01.599Z,101737.63
2018-07-31T12:23:31.134Z,101739.14
2018-07-31T12:26:00.900Z,101739.06
2018-07-31T12:40:40.584Z,101737.34
2018-07-31T12:43:09.904Z,101745.67
2018-07-31T12:57:39.168Z,101740.00
2018-07-31T13:00:08.639Z,101739.13
2018-07-31T13:14:53.126Z,101765.12
2018-07-31T13:17:22.345Z,101758.84
2018-07-31T13:32:09.200Z,101782.93
2018-07-31T13:34:39.195Z,101773.22
2018-07-31T13:49:12.505Z,101777.98
2018-07-31T13:51:43.347Z,101780.00
2018-07-31T14:06:20.404Z,101784.05
2018-07-31T14:08:50.219Z,101786.58
2018-07-31T14:22:58.451Z,101778.58
2018-07-31T14:25:27.563Z,101785.82
2018-07-31T14:27:57.042Z,101797.45
2018-07-31T14:39:34.171Z,101802.99
2018-07-31T14:42:03.319Z,101805.54
2018-07-31T14:44:32.692Z,101812.61
2018-07-31T14:56:08.366Z,101807.61
2018-07-31T14:58:37.331Z,101807.46
2018-07-31T15:01:06.392Z,101822.62
2018-07-31T15:12:38.446Z,101830.45
2018-07-31T15:15:08.754Z,101829.13
2018-07-31T15:17:37.945Z,101840.50
2018-07-31T15:32:15.764Z,101833.69
2018-07-31T15:34:44.822Z,101840.70
2018-07-31T16:37:57.174Z,101866.16
2018-07-31T16:43:35.464Z,101872.58
2018-07-31T16:55:34.441Z,101868.52
2018-07-31T16:58:08.023Z,101863.64
2018-07-31T17:00:37.450Z,101872.41
2018-07-31T17:12:17.798Z,101871.91
2018-07-31T17:14:46.807Z,101872.39
2018-07-31T17:17:15.828Z,101876.63
2018-07-31T17:32:05.939Z,101890.48
2018-07-31T17:34:41.243Z,101887.61
2018-07-31T17:46:18.306Z,101890.81
2018-07-31T17:48:47.318Z,101887.16
2018-07-31T17:51:16.370Z,101890.09
2018-07-31T18:03:15.906Z,101892.30
2018-07-31T18:08:47.743Z,101895.91
2018-07-31T18:20:24.108Z,101903.02
2018-07-31T18:22:53.083Z,101896.91
2018-07-31T18:25:22.062Z,101907.45
2018-07-31T18:27:56.920Z,101908.55
2018-07-31T18:39:34.347Z,101912.63
2018-07-31T18:42:03.272Z,101918.23
2018-07-31T18:44:32.973Z,101921.33
2018-07-31T18:56:11.474Z,101913.66
2018-07-31T18:58:40.614Z,101917.22
2018-07-31T19:01:09.656Z,101922.43
2018-07-31T19:12:48.067Z,101926.77
2018-07-31T19:15:17.527Z,101928.17
2018-07-31T19:17:47.681Z,101924.16
2018-07-31T19:29:23.906Z,101925.98
2018-07-31T19:31:52.900Z,101923.52
2018-07-31T19:34:21.905Z,101927.84
2018-07-31T19:45:58.675Z,101937.79
2018-07-31T19:48:27.671Z,101943.50
2018-07-31T19:50:56.686Z,101942.27
2018-07-31T20:02:43.038Z,101955.49
2018-07-31T20:05:12.127Z,101956.28
2018-07-31T20:07:41.132Z,101955.09
2018-07-31T20:22:12.826Z,101970.76
2018-07-31T20:24:41.866Z,101978.98
2018-07-31T20:39:18.407Z,101991.14
2018-07-31T20:41:49.818Z,101985.66
2018-07-31T20:56:57.309Z,101994.26
2018-07-31T20:59:33.769Z,101989.52
2018-07-31T21:15:27.214Z,102001.52
2018-07-31T21:30:42.421Z,102005.82
2018-07-31T21:33:25.627Z,102011.31
2018-07-31T21:51:18.915Z,102024.30
2018-07-31T22:02:56.876Z,102031.03
2018-07-31T22:05:58.245Z,102034.23
2018-07-31T22:56:16.815Z,102041.44
2018-07-31T22:58:52.741Z,102039.83
2018-07-31T23:13:53.713Z,102032.20
2018-07-31T23:16:48.863Z,102029.56
2018-07-31T23:28:40.209Z,102026.18
2018-07-31T23:31:52.144Z,102027.89
2018-07-31T23:46:40.945Z,102023.93
2018-07-31T23:49:31.361Z,102022.22
2018-07-31T23:52:01.470Z,102012.98
